This is the latest recevied weather packets stored in our database for station/object K5GHS-1. If no packets are shown the sender has not sent any weather packets the latest 1 day(s).
| Time | Temp. | Humidity | Pressure | Rain* | Wind** | Luminosity | Snow |
|---|---|---|---|---|---|---|---|
| 1778085826 | 12.22° C | 92% | 1013.7 hPa | 0 mm | - | 51 W/m² | - |
| 1778085218 | 12.22° C | 92% | 1013.7 hPa | 0 mm | - | 41 W/m² | - |
| 1778084309 | 12.22° C | 92% | 1013.1 hPa | 0 mm | - | 97 W/m² | - |
| 1778081662 | 12.22° C | 86% | 1014.7 hPa | 0 mm | - | 4 W/m² | - |
| 1778081056 | 12.78° C | 84% | 1013.6 hPa | 0 mm | - | 21 W/m² | - |
| 1778079845 | 12.22° C | 83% | 1013.1 hPa | 0 mm | - | 34 W/m² | - |
| 1778079238 | 12.22° C | 83% | 1013.1 hPa | 0 mm | - | 28 W/m² | - |
| 1778078936 | 12.22° C | 82% | 1012.4 hPa | 0 mm | - | 52 W/m² | - |
| 1778078632 | 12.22° C | 82% | 1013.2 hPa | 0 mm | - | 29 W/m² | - |
| 1778076517 | 12.22° C | 83% | 1012.4 hPa | 0 mm | - | 50 W/m² | - |
| 1778075607 | 12.22° C | 83% | 1012.2 hPa | 0 mm | - | 32 W/m² | - |
| 1778075000 | 12.22° C | 83% | 1012 hPa | 0 mm | - | 36 W/m² | - |
| 1778074394 | 11.67° C | 84% | 1012.1 hPa | 0 mm | - | 40 W/m² | - |
| 1778073788 | 11.67° C | 86% | 1011.6 hPa | 0 mm | - | 21 W/m² | - |
| 1778073486 | 11.67° C | 87% | 1011.4 hPa | 0 mm | - | 26 W/m² | - |
| 1778071971 | 11.67° C | 86% | 1011.4 hPa | 0 mm | - | 11 W/m² | - |
| 1778070156 | 11.67° C | 85% | 1011.4 hPa | 0 mm | - | 5 W/m² | - |
| 1778069854 | 11.67° C | 85% | 1011.1 hPa | 0 mm | - | 4 W/m² | - |
| 1778068039 | 11.67° C | 84% | 1011.1 hPa | 0 mm | - | 0 W/m² | - |
| 1778067736 | 12.22° C | 83% | 1010.8 hPa | 0 mm | - | 0 W/m² | - |
| 1778066223 | 12.78° C | 81% | 1010.2 hPa | 0 mm | - | 0 W/m² | - |
| 1778065921 | 12.78° C | 81% | 1010.2 hPa | 0 mm | - | 0 W/m² | - |
| 1778065012 | 12.78° C | 79% | 1010 hPa | 0 mm | - | 0 W/m² | - |
| 1778064104 | 12.78° C | 78% | 1009.9 hPa | 0 mm | - | 0 W/m² | - |
| 1778063801 | 12.78° C | 77% | 1009.7 hPa | 0 mm | - | 0 W/m² | - |
* Rain latest hour (hover to see other rain measurements)
** Current wind speed in m/s (hover to see current wind gust speed)